sensor_id;sensor_type;location;lat;lon;timestamp;P1;durP1;ratioP1;P2;durP2;ratioP2
77117;SDS011;66072;50.238;19.228;2024-02-28T00:00:58;32.00;;;21.80;;
77117;SDS011;66072;50.238;19.228;2024-02-28T00:03:43;34.80;;;23.30;;
77117;SDS011;66072;50.238;19.228;2024-02-28T00:06:11;32.10;;;22.40;;
77117;SDS011;66072;50.238;19.228;2024-02-28T00:08:38;32.20;;;20.90;;
77117;SDS011;66072;50.238;19.228;2024-02-28T00:11:06;34.40;;;20.90;;
77117;SDS011;66072;50.238;19.228;2024-02-28T00:13:34;35.70;;;22.70;;
77117;SDS011;66072;50.238;19.228;2024-02-28T00:16:02;38.00;;;23.40;;
77117;SDS011;66072;50.238;19.228;2024-02-28T00:18:30;36.50;;;23.10;;
77117;SDS011;66072;50.238;19.228;2024-02-28T00:20:58;41.20;;;23.10;;
77117;SDS011;66072;50.238;19.228;2024-02-28T00:23:26;34.20;;;20.70;;
77117;SDS011;66072;50.238;19.228;2024-02-28T00:25:53;37.00;;;22.70;;
77117;SDS011;66072;50.238;19.228;2024-02-28T00:28:21;39.70;;;22.90;;
77117;SDS011;66072;50.238;19.228;2024-02-28T00:30:49;36.40;;;23.80;;
77117;SDS011;66072;50.238;19.228;2024-02-28T00:33:17;37.50;;;23.30;;
77117;SDS011;66072;50.238;19.228;2024-02-28T00:35:44;39.20;;;24.70;;
77117;SDS011;66072;50.238;19.228;2024-02-28T00:38:12;39.50;;;25.90;;
77117;SDS011;66072;50.238;19.228;2024-02-28T00:40:40;36.20;;;22.80;;
77117;SDS011;66072;50.238;19.228;2024-02-28T00:43:08;36.40;;;23.10;;
77117;SDS011;66072;50.238;19.228;2024-02-28T00:45:35;34.00;;;22.00;;
77117;SDS011;66072;50.238;19.228;2024-02-28T00:48:03;38.50;;;22.40;;
77117;SDS011;66072;50.238;19.228;2024-02-28T00:50:31;40.70;;;24.90;;
77117;SDS011;66072;50.238;19.228;2024-02-28T00:52:59;44.90;;;25.50;;
77117;SDS011;66072;50.238;19.228;2024-02-28T00:55:27;39.00;;;24.20;;
77117;SDS011;66072;50.238;19.228;2024-02-28T00:57:55;41.40;;;25.90;;
77117;SDS011;66072;50.238;19.228;2024-02-28T01:00:22;40.40;;;25.60;;
77117;SDS011;66072;50.238;19.228;2024-02-28T01:02:50;41.50;;;25.20;;
77117;SDS011;66072;50.238;19.228;2024-02-28T01:05:18;40.00;;;24.00;;
77117;SDS011;66072;50.238;19.228;2024-02-28T01:07:46;32.50;;;22.10;;
77117;SDS011;66072;50.238;19.228;2024-02-28T01:10:14;37.20;;;24.20;;
77117;SDS011;66072;50.238;19.228;2024-02-28T01:12:42;44.10;;;26.20;;
77117;SDS011;66072;50.238;19.228;2024-02-28T01:15:09;43.90;;;25.80;;
77117;SDS011;66072;50.238;19.228;2024-02-28T01:17:37;42.70;;;25.70;;
77117;SDS011;66072;50.238;19.228;2024-02-28T01:20:08;42.20;;;26.80;;
77117;SDS011;66072;50.238;19.228;2024-02-28T01:22:36;43.20;;;26.80;;
77117;SDS011;66072;50.238;19.228;2024-02-28T01:25:04;49.90;;;29.60;;
77117;SDS011;66072;50.238;19.228;2024-02-28T01:27:32;51.90;;;32.60;;
77117;SDS011;66072;50.238;19.228;2024-02-28T01:30:00;53.00;;;32.40;;
77117;SDS011;66072;50.238;19.228;2024-02-28T01:32:29;50.00;;;32.60;;
77117;SDS011;66072;50.238;19.228;2024-02-28T01:34:57;53.50;;;33.10;;
77117;SDS011;66072;50.238;19.228;2024-02-28T01:37:24;51.40;;;32.70;;
77117;SDS011;66072;50.238;19.228;2024-02-28T01:39:52;54.10;;;31.80;;
77117;SDS011;66072;50.238;19.228;2024-02-28T01:42:20;51.70;;;32.50;;
77117;SDS011;66072;50.238;19.228;2024-02-28T01:44:48;50.20;;;29.70;;
77117;SDS011;66072;50.238;19.228;2024-02-28T01:47:16;47.20;;;29.40;;
77117;SDS011;66072;50.238;19.228;2024-02-28T01:49:45;57.20;;;35.20;;
77117;SDS011;66072;50.238;19.228;2024-02-28T01:52:14;56.60;;;34.70;;
77117;SDS011;66072;50.238;19.228;2024-02-28T01:54:42;54.20;;;36.50;;
77117;SDS011;66072;50.238;19.228;2024-02-28T01:57:11;58.50;;;36.20;;
77117;SDS011;66072;50.238;19.228;2024-02-28T01:59:39;58.20;;;36.40;;
77117;SDS011;66072;50.238;19.228;2024-02-28T02:02:08;53.90;;;35.00;;
77117;SDS011;66072;50.238;19.228;2024-02-28T02:04:36;50.60;;;30.80;;
77117;SDS011;66072;50.238;19.228;2024-02-28T02:07:03;55.00;;;34.20;;
77117;SDS011;66072;50.238;19.228;2024-02-28T02:09:34;48.60;;;31.80;;
77117;SDS011;66072;50.238;19.228;2024-02-28T02:12:02;48.90;;;31.10;;
77117;SDS011;66072;50.238;19.228;2024-02-28T02:14:30;51.10;;;32.60;;
77117;SDS011;66072;50.238;19.228;2024-02-28T02:16:58;53.10;;;32.50;;
77117;SDS011;66072;50.238;19.228;2024-02-28T02:19:25;56.70;;;32.30;;
77117;SDS011;66072;50.238;19.228;2024-02-28T02:21:53;55.80;;;33.60;;
77117;SDS011;66072;50.238;19.228;2024-02-28T02:24:25;48.50;;;33.70;;
77117;SDS011;66072;50.238;19.228;2024-02-28T02:26:57;57.30;;;36.30;;
77117;SDS011;66072;50.238;19.228;2024-02-28T02:29:26;65.50;;;39.30;;
77117;SDS011;66072;50.238;19.228;2024-02-28T02:31:54;71.70;;;42.30;;
77117;SDS011;66072;50.238;19.228;2024-02-28T02:34:22;63.20;;;38.80;;
77117;SDS011;66072;50.238;19.228;2024-02-28T02:36:49;67.50;;;40.40;;
77117;SDS011;66072;50.238;19.228;2024-02-28T02:39:17;66.30;;;37.90;;
77117;SDS011;66072;50.238;19.228;2024-02-28T02:41:45;59.90;;;39.50;;
77117;SDS011;66072;50.238;19.228;2024-02-28T02:44:13;70.40;;;41.90;;
77117;SDS011;66072;50.238;19.228;2024-02-28T02:46:41;72.50;;;42.50;;
77117;SDS011;66072;50.238;19.228;2024-02-28T02:49:08;74.50;;;44.10;;
77117;SDS011;66072;50.238;19.228;2024-02-28T02:51:36;73.50;;;44.40;;
77117;SDS011;66072;50.238;19.228;2024-02-28T02:54:04;77.90;;;45.60;;
77117;SDS011;66072;50.238;19.228;2024-02-28T02:56:31;72.40;;;44.50;;
77117;SDS011;66072;50.238;19.228;2024-02-28T02:58:59;67.10;;;43.60;;
77117;SDS011;66072;50.238;19.228;2024-02-28T03:01:27;63.40;;;40.10;;
77117;SDS011;66072;50.238;19.228;2024-02-28T03:03:55;60.60;;;38.50;;
77117;SDS011;66072;50.238;19.228;2024-02-28T03:06:23;59.40;;;36.30;;
77117;SDS011;66072;50.238;19.228;2024-02-28T03:08:50;56.70;;;35.50;;
77117;SDS011;66072;50.238;19.228;2024-02-28T03:11:18;55.80;;;33.00;;
77117;SDS011;66072;50.238;19.228;2024-02-28T03:13:46;51.90;;;34.20;;
77117;SDS011;66072;50.238;19.228;2024-02-28T03:16:14;50.30;;;35.30;;
77117;SDS011;66072;50.238;19.228;2024-02-28T03:18:41;57.20;;;35.70;;
77117;SDS011;66072;50.238;19.228;2024-02-28T03:21:09;57.80;;;36.10;;
77117;SDS011;66072;50.238;19.228;2024-02-28T03:23:37;51.50;;;34.00;;
77117;SDS011;66072;50.238;19.228;2024-02-28T03:26:05;52.00;;;31.80;;
77117;SDS011;66072;50.238;19.228;2024-02-28T03:28:32;46.80;;;29.70;;
77117;SDS011;66072;50.238;19.228;2024-02-28T03:31:00;48.30;;;31.40;;
77117;SDS011;66072;50.238;19.228;2024-02-28T03:33:28;46.10;;;31.00;;
77117;SDS011;66072;50.238;19.228;2024-02-28T03:35:56;48.50;;;27.40;;
77117;SDS011;66072;50.238;19.228;2024-02-28T03:38:23;44.90;;;28.90;;
77117;SDS011;66072;50.238;19.228;2024-02-28T03:40:51;42.50;;;29.50;;
77117;SDS011;66072;50.238;19.228;2024-02-28T03:43:19;43.20;;;28.40;;
77117;SDS011;66072;50.238;19.228;2024-02-28T03:45:46;42.30;;;28.70;;
77117;SDS011;66072;50.238;19.228;2024-02-28T03:48:14;47.60;;;33.50;;
77117;SDS011;66072;50.238;19.228;2024-02-28T03:50:42;52.00;;;32.00;;
77117;SDS011;66072;50.238;19.228;2024-02-28T03:53:10;47.40;;;30.30;;
77117;SDS011;66072;50.238;19.228;2024-02-28T03:55:38;46.60;;;32.10;;
77117;SDS011;66072;50.238;19.228;2024-02-28T03:58:05;43.90;;;30.20;;
77117;SDS011;66072;50.238;19.228;2024-02-28T04:00:34;46.90;;;29.90;;
77117;SDS011;66072;50.238;19.228;2024-02-28T04:03:02;48.50;;;30.20;;
77117;SDS011;66072;50.238;19.228;2024-02-28T04:05:31;41.50;;;26.90;;
77117;SDS011;66072;50.238;19.228;2024-02-28T04:07:59;42.20;;;27.40;;
77117;SDS011;66072;50.238;19.228;2024-02-28T04:10:26;44.20;;;27.70;;
77117;SDS011;66072;50.238;19.228;2024-02-28T04:12:54;50.50;;;30.20;;
77117;SDS011;66072;50.238;19.228;2024-02-28T04:15:22;43.80;;;26.50;;
77117;SDS011;66072;50.238;19.228;2024-02-28T04:17:50;42.80;;;26.90;;
77117;SDS011;66072;50.238;19.228;2024-02-28T04:20:17;41.70;;;28.30;;
77117;SDS011;66072;50.238;19.228;2024-02-28T04:22:45;43.70;;;24.90;;
77117;SDS011;66072;50.238;19.228;2024-02-28T04:25:13;44.70;;;26.80;;
77117;SDS011;66072;50.238;19.228;2024-02-28T04:27:41;41.90;;;27.40;;
77117;SDS011;66072;50.238;19.228;2024-02-28T04:30:08;41.00;;;27.00;;
77117;SDS011;66072;50.238;19.228;2024-02-28T04:32:36;45.20;;;29.30;;
77117;SDS011;66072;50.238;19.228;2024-02-28T04:35:04;45.00;;;28.20;;
77117;SDS011;66072;50.238;19.228;2024-02-28T04:37:32;45.10;;;29.90;;
77117;SDS011;66072;50.238;19.228;2024-02-28T04:39:59;47.40;;;29.10;;
77117;SDS011;66072;50.238;19.228;2024-02-28T04:42:28;48.30;;;29.40;;
77117;SDS011;66072;50.238;19.228;2024-02-28T04:44:55;46.10;;;30.00;;
77117;SDS011;66072;50.238;19.228;2024-02-28T04:47:23;44.50;;;29.30;;
77117;SDS011;66072;50.238;19.228;2024-02-28T04:50:02;43.50;;;29.30;;
77117;SDS011;66072;50.238;19.228;2024-02-28T04:52:31;49.80;;;32.20;;
77117;SDS011;66072;50.238;19.228;2024-02-28T04:54:59;47.40;;;31.10;;
77117;SDS011;66072;50.238;19.228;2024-02-28T04:57:27;49.50;;;31.80;;
77117;SDS011;66072;50.238;19.228;2024-02-28T04:59:55;44.00;;;31.90;;
77117;SDS011;66072;50.238;19.228;2024-02-28T05:02:23;49.30;;;31.40;;
77117;SDS011;66072;50.238;19.228;2024-02-28T05:04:51;50.80;;;29.00;;
77117;SDS011;66072;50.238;19.228;2024-02-28T05:07:19;48.30;;;28.80;;
77117;SDS011;66072;50.238;19.228;2024-02-28T05:09:46;45.50;;;27.70;;
77117;SDS011;66072;50.238;19.228;2024-02-28T05:12:14;44.70;;;29.50;;
77117;SDS011;66072;50.238;19.228;2024-02-28T05:14:42;43.50;;;29.10;;
77117;SDS011;66072;50.238;19.228;2024-02-28T05:17:10;46.80;;;30.80;;
77117;SDS011;66072;50.238;19.228;2024-02-28T05:19:38;42.00;;;26.30;;
77117;SDS011;66072;50.238;19.228;2024-02-28T05:22:07;39.60;;;25.40;;
77117;SDS011;66072;50.238;19.228;2024-02-28T05:24:34;42.00;;;26.60;;
77117;SDS011;66072;50.238;19.228;2024-02-28T05:27:02;35.70;;;23.90;;
77117;SDS011;66072;50.238;19.228;2024-02-28T05:29:30;39.40;;;25.40;;
77117;SDS011;66072;50.238;19.228;2024-02-28T05:31:58;35.30;;;24.60;;
77117;SDS011;66072;50.238;19.228;2024-02-28T05:34:25;39.50;;;24.20;;
77117;SDS011;66072;50.238;19.228;2024-02-28T05:36:53;35.50;;;23.50;;
77117;SDS011;66072;50.238;19.228;2024-02-28T05:39:21;36.60;;;23.50;;
77117;SDS011;66072;50.238;19.228;2024-02-28T05:41:49;39.30;;;24.50;;
77117;SDS011;66072;50.238;19.228;2024-02-28T05:44:17;37.90;;;24.50;;
77117;SDS011;66072;50.238;19.228;2024-02-28T05:46:44;39.10;;;25.50;;
77117;SDS011;66072;50.238;19.228;2024-02-28T05:49:12;41.30;;;26.00;;
77117;SDS011;66072;50.238;19.228;2024-02-28T05:51:40;42.10;;;28.20;;
77117;SDS011;66072;50.238;19.228;2024-02-28T05:54:08;44.90;;;29.40;;
77117;SDS011;66072;50.238;19.228;2024-02-28T05:56:35;49.20;;;31.40;;
77117;SDS011;66072;50.238;19.228;2024-02-28T05:59:03;47.10;;;30.00;;
77117;SDS011;66072;50.238;19.228;2024-02-28T06:01:31;49.60;;;31.10;;
77117;SDS011;66072;50.238;19.228;2024-02-28T06:03:59;43.60;;;28.30;;
77117;SDS011;66072;50.238;19.228;2024-02-28T06:06:27;42.50;;;26.70;;
77117;SDS011;66072;50.238;19.228;2024-02-28T06:08:54;45.10;;;27.30;;
77117;SDS011;66072;50.238;19.228;2024-02-28T06:11:22;38.80;;;24.60;;
77117;SDS011;66072;50.238;19.228;2024-02-28T06:13:51;40.30;;;27.00;;
77117;SDS011;66072;50.238;19.228;2024-02-28T06:16:18;44.70;;;27.80;;
77117;SDS011;66072;50.238;19.228;2024-02-28T06:18:46;41.40;;;26.10;;
77117;SDS011;66072;50.238;19.228;2024-02-28T06:21:14;38.60;;;24.70;;
77117;SDS011;66072;50.238;19.228;2024-02-28T06:23:42;39.50;;;26.00;;
77117;SDS011;66072;50.238;19.228;2024-02-28T06:26:10;45.20;;;30.40;;
77117;SDS011;66072;50.238;19.228;2024-02-28T06:28:38;48.20;;;30.50;;
77117;SDS011;66072;50.238;19.228;2024-02-28T06:31:11;51.80;;;31.50;;
77117;SDS011;66072;50.238;19.228;2024-02-28T06:33:47;40.90;;;29.00;;
77117;SDS011;66072;50.238;19.228;2024-02-28T06:36:15;47.10;;;30.70;;
77117;SDS011;66072;50.238;19.228;2024-02-28T06:38:43;45.90;;;31.90;;
77117;SDS011;66072;50.238;19.228;2024-02-28T06:41:11;45.00;;;31.10;;
77117;SDS011;66072;50.238;19.228;2024-02-28T06:43:38;44.10;;;27.60;;
77117;SDS011;66072;50.238;19.228;2024-02-28T06:46:06;35.10;;;25.80;;
77117;SDS011;66072;50.238;19.228;2024-02-28T06:48:34;43.60;;;27.60;;
77117;SDS011;66072;50.238;19.228;2024-02-28T06:51:02;43.90;;;29.20;;
77117;SDS011;66072;50.238;19.228;2024-02-28T06:53:30;42.80;;;29.80;;
77117;SDS011;66072;50.238;19.228;2024-02-28T06:55:58;42.20;;;29.60;;
77117;SDS011;66072;50.238;19.228;2024-02-28T06:58:25;50.80;;;33.10;;
77117;SDS011;66072;50.238;19.228;2024-02-28T07:00:53;52.20;;;34.40;;
77117;SDS011;66072;50.238;19.228;2024-02-28T07:03:23;53.50;;;37.40;;
77117;SDS011;66072;50.238;19.228;2024-02-28T07:05:52;56.80;;;39.70;;
77117;SDS011;66072;50.238;19.228;2024-02-28T07:08:20;58.60;;;40.70;;
77117;SDS011;66072;50.238;19.228;2024-02-28T07:10:47;63.10;;;41.10;;
77117;SDS011;66072;50.238;19.228;2024-02-28T07:13:15;60.90;;;39.20;;
77117;SDS011;66072;50.238;19.228;2024-02-28T07:15:43;52.20;;;36.20;;
77117;SDS011;66072;50.238;19.228;2024-02-28T07:18:11;54.00;;;36.80;;
77117;SDS011;66072;50.238;19.228;2024-02-28T07:20:39;51.10;;;34.90;;
77117;SDS011;66072;50.238;19.228;2024-02-28T07:23:07;52.50;;;35.60;;
77117;SDS011;66072;50.238;19.228;2024-02-28T07:25:35;49.70;;;33.40;;
77117;SDS011;66072;50.238;19.228;2024-02-28T07:28:02;42.80;;;28.40;;
77117;SDS011;66072;50.238;19.228;2024-02-28T07:30:31;43.00;;;29.40;;
77117;SDS011;66072;50.238;19.228;2024-02-28T07:32:59;39.60;;;26.90;;
77117;SDS011;66072;50.238;19.228;2024-02-28T07:35:27;36.60;;;24.60;;
77117;SDS011;66072;50.238;19.228;2024-02-28T07:37:54;37.40;;;24.80;;
77117;SDS011;66072;50.238;19.228;2024-02-28T07:40:22;38.40;;;25.30;;
77117;SDS011;66072;50.238;19.228;2024-02-28T07:42:50;36.70;;;24.10;;
77117;SDS011;66072;50.238;19.228;2024-02-28T07:45:17;35.00;;;24.70;;
77117;SDS011;66072;50.238;19.228;2024-02-28T07:47:45;35.40;;;24.10;;
77117;SDS011;66072;50.238;19.228;2024-02-28T07:50:13;33.10;;;23.00;;
77117;SDS011;66072;50.238;19.228;2024-02-28T07:52:41;32.00;;;23.30;;
77117;SDS011;66072;50.238;19.228;2024-02-28T07:55:08;34.00;;;23.60;;
77117;SDS011;66072;50.238;19.228;2024-02-28T07:57:36;35.70;;;24.00;;
77117;SDS011;66072;50.238;19.228;2024-02-28T08:00:04;38.00;;;23.80;;
77117;SDS011;66072;50.238;19.228;2024-02-28T08:02:32;34.20;;;25.30;;
77117;SDS011;66072;50.238;19.228;2024-02-28T08:05:00;37.50;;;25.40;;
77117;SDS011;66072;50.238;19.228;2024-02-28T08:07:28;37.00;;;26.50;;
77117;SDS011;66072;50.238;19.228;2024-02-28T08:09:56;38.10;;;25.60;;
77117;SDS011;66072;50.238;19.228;2024-02-28T08:12:23;34.20;;;24.80;;
77117;SDS011;66072;50.238;19.228;2024-02-28T08:14:51;38.70;;;25.50;;
77117;SDS011;66072;50.238;19.228;2024-02-28T08:17:19;35.50;;;25.70;;
77117;SDS011;66072;50.238;19.228;2024-02-28T08:19:47;40.30;;;26.90;;
77117;SDS011;66072;50.238;19.228;2024-02-28T08:22:15;32.20;;;22.10;;
77117;SDS011;66072;50.238;19.228;2024-02-28T08:24:42;35.30;;;23.00;;
77117;SDS011;66072;50.238;19.228;2024-02-28T08:27:10;36.50;;;23.90;;
77117;SDS011;66072;50.238;19.228;2024-02-28T08:29:41;32.90;;;24.60;;
77117;SDS011;66072;50.238;19.228;2024-02-28T08:32:12;37.70;;;26.00;;
77117;SDS011;66072;50.238;19.228;2024-02-28T08:34:43;39.40;;;25.90;;
77117;SDS011;66072;50.238;19.228;2024-02-28T08:37:12;34.20;;;21.50;;
77117;SDS011;66072;50.238;19.228;2024-02-28T08:39:40;37.40;;;23.80;;
77117;SDS011;66072;50.238;19.228;2024-02-28T08:42:08;38.40;;;25.50;;
77117;SDS011;66072;50.238;19.228;2024-02-28T08:44:36;35.80;;;24.90;;
77117;SDS011;66072;50.238;19.228;2024-02-28T08:47:03;36.20;;;24.90;;
77117;SDS011;66072;50.238;19.228;2024-02-28T08:49:31;34.60;;;23.10;;
77117;SDS011;66072;50.238;19.228;2024-02-28T08:51:59;35.50;;;23.40;;
77117;SDS011;66072;50.238;19.228;2024-02-28T08:54:27;37.80;;;24.20;;
77117;SDS011;66072;50.238;19.228;2024-02-28T08:56:55;39.70;;;25.80;;
77117;SDS011;66072;50.238;19.228;2024-02-28T08:59:30;35.40;;;25.30;;
77117;SDS011;66072;50.238;19.228;2024-02-28T09:01:58;37.40;;;23.90;;
77117;SDS011;66072;50.238;19.228;2024-02-28T09:04:26;35.90;;;24.80;;
77117;SDS011;66072;50.238;19.228;2024-02-28T09:06:53;38.50;;;25.10;;
77117;SDS011;66072;50.238;19.228;2024-02-28T09:09:21;41.60;;;25.90;;
77117;SDS011;66072;50.238;19.228;2024-02-28T09:11:49;37.60;;;26.20;;
77117;SDS011;66072;50.238;19.228;2024-02-28T09:14:17;36.50;;;24.20;;
77117;SDS011;66072;50.238;19.228;2024-02-28T09:16:45;40.80;;;27.70;;
77117;SDS011;66072;50.238;19.228;2024-02-28T09:19:12;39.50;;;26.90;;
77117;SDS011;66072;50.238;19.228;2024-02-28T09:21:40;39.60;;;26.50;;
77117;SDS011;66072;50.238;19.228;2024-02-28T09:24:08;38.60;;;26.90;;
77117;SDS011;66072;50.238;19.228;2024-02-28T09:26:38;42.90;;;27.80;;
77117;SDS011;66072;50.238;19.228;2024-02-28T09:29:07;38.60;;;26.20;;
77117;SDS011;66072;50.238;19.228;2024-02-28T09:31:34;44.00;;;28.10;;
77117;SDS011;66072;50.238;19.228;2024-02-28T09:34:02;41.20;;;27.90;;
77117;SDS011;66072;50.238;19.228;2024-02-28T09:36:31;43.30;;;27.90;;
77117;SDS011;66072;50.238;19.228;2024-02-28T09:38:58;45.50;;;30.60;;
77117;SDS011;66072;50.238;19.228;2024-02-28T09:41:26;47.40;;;31.80;;
77117;SDS011;66072;50.238;19.228;2024-02-28T09:43:54;50.30;;;32.70;;
77117;SDS011;66072;50.238;19.228;2024-02-28T09:46:22;45.60;;;31.80;;
77117;SDS011;66072;50.238;19.228;2024-02-28T09:48:50;51.70;;;31.90;;
77117;SDS011;66072;50.238;19.228;2024-02-28T09:51:19;45.00;;;29.80;;
77117;SDS011;66072;50.238;19.228;2024-02-28T09:53:49;47.30;;;32.00;;
77117;SDS011;66072;50.238;19.228;2024-02-28T09:56:17;49.60;;;34.10;;
77117;SDS011;66072;50.238;19.228;2024-02-28T09:58:45;49.10;;;33.40;;
77117;SDS011;66072;50.238;19.228;2024-02-28T10:01:13;54.50;;;35.50;;
77117;SDS011;66072;50.238;19.228;2024-02-28T10:03:44;47.80;;;32.30;;
77117;SDS011;66072;50.238;19.228;2024-02-28T10:06:12;48.10;;;32.60;;
77117;SDS011;66072;50.238;19.228;2024-02-28T10:08:40;47.30;;;33.70;;
77117;SDS011;66072;50.238;19.228;2024-02-28T10:11:08;46.70;;;30.70;;
77117;SDS011;66072;50.238;19.228;2024-02-28T10:13:36;44.30;;;29.80;;
77117;SDS011;66072;50.238;19.228;2024-02-28T10:16:06;36.60;;;26.00;;
77117;SDS011;66072;50.238;19.228;2024-02-28T10:18:34;40.40;;;26.40;;
77117;SDS011;66072;50.238;19.228;2024-02-28T10:21:03;42.30;;;27.90;;
77117;SDS011;66072;50.238;19.228;2024-02-28T10:23:31;47.70;;;31.80;;
77117;SDS011;66072;50.238;19.228;2024-02-28T10:26:00;43.90;;;29.50;;
77117;SDS011;66072;50.238;19.228;2024-02-28T10:28:28;49.50;;;32.60;;
77117;SDS011;66072;50.238;19.228;2024-02-28T10:30:56;49.10;;;31.20;;
77117;SDS011;66072;50.238;19.228;2024-02-28T10:33:26;46.70;;;31.50;;
77117;SDS011;66072;50.238;19.228;2024-02-28T10:35:54;52.10;;;33.40;;
77117;SDS011;66072;50.238;19.228;2024-02-28T10:38:23;50.80;;;33.90;;
77117;SDS011;66072;50.238;19.228;2024-02-28T10:40:54;44.10;;;30.70;;
77117;SDS011;66072;50.238;19.228;2024-02-28T10:43:22;46.30;;;31.00;;
77117;SDS011;66072;50.238;19.228;2024-02-28T10:45:52;51.50;;;32.40;;
77117;SDS011;66072;50.238;19.228;2024-02-28T10:48:40;50.10;;;31.70;;
77117;SDS011;66072;50.238;19.228;2024-02-28T10:51:08;45.30;;;30.50;;
77117;SDS011;66072;50.238;19.228;2024-02-28T10:53:41;43.40;;;29.20;;
77117;SDS011;66072;50.238;19.228;2024-02-28T10:56:11;36.90;;;24.90;;
77117;SDS011;66072;50.238;19.228;2024-02-28T11:01:14;48.30;;;31.80;;
77117;SDS011;66072;50.238;19.228;2024-02-28T11:03:43;45.40;;;29.10;;
77117;SDS011;66072;50.238;19.228;2024-02-28T11:06:18;45.40;;;30.80;;
77117;SDS011;66072;50.238;19.228;2024-02-28T11:08:47;43.30;;;29.70;;
77117;SDS011;66072;50.238;19.228;2024-02-28T11:11:16;46.50;;;29.40;;
77117;SDS011;66072;50.238;19.228;2024-02-28T11:13:51;46.10;;;30.20;;
77117;SDS011;66072;50.238;19.228;2024-02-28T11:16:41;46.50;;;29.70;;
77117;SDS011;66072;50.238;19.228;2024-02-28T11:19:09;40.60;;;29.10;;
77117;SDS011;66072;50.238;19.228;2024-02-28T11:21:51;37.90;;;25.60;;
77117;SDS011;66072;50.238;19.228;2024-02-28T11:24:22;40.60;;;25.90;;
77117;SDS011;66072;50.238;19.228;2024-02-28T11:27:01;42.80;;;27.60;;
77117;SDS011;66072;50.238;19.228;2024-02-28T11:29:29;44.80;;;28.30;;
77117;SDS011;66072;50.238;19.228;2024-02-28T11:31:57;42.60;;;28.20;;
77117;SDS011;66072;50.238;19.228;2024-02-28T11:34:25;44.10;;;29.70;;
77117;SDS011;66072;50.238;19.228;2024-02-28T11:36:53;47.20;;;30.10;;
77117;SDS011;66072;50.238;19.228;2024-02-28T11:39:22;46.00;;;31.50;;
77117;SDS011;66072;50.238;19.228;2024-02-28T11:41:50;46.30;;;29.90;;
77117;SDS011;66072;50.238;19.228;2024-02-28T11:44:18;42.30;;;28.40;;
77117;SDS011;66072;50.238;19.228;2024-02-28T11:46:47;44.20;;;28.40;;
77117;SDS011;66072;50.238;19.228;2024-02-28T11:49:15;39.50;;;26.30;;
77117;SDS011;66072;50.238;19.228;2024-02-28T11:51:43;41.50;;;28.40;;
77117;SDS011;66072;50.238;19.228;2024-02-28T11:54:12;44.00;;;30.60;;
77117;SDS011;66072;50.238;19.228;2024-02-28T11:56:40;42.70;;;28.70;;
77117;SDS011;66072;50.238;19.228;2024-02-28T11:59:09;41.50;;;28.70;;
77117;SDS011;66072;50.238;19.228;2024-02-28T12:01:40;49.70;;;30.80;;
77117;SDS011;66072;50.238;19.228;2024-02-28T12:04:09;54.50;;;32.40;;
77117;SDS011;66072;50.238;19.228;2024-02-28T12:06:37;56.20;;;34.70;;
77117;SDS011;66072;50.238;19.228;2024-02-28T12:09:06;59.10;;;37.50;;
77117;SDS011;66072;50.238;19.228;2024-02-28T12:11:35;64.00;;;41.40;;
77117;SDS011;66072;50.238;19.228;2024-02-28T12:14:04;67.00;;;41.40;;
77117;SDS011;66072;50.238;19.228;2024-02-28T12:16:36;60.30;;;38.20;;
77117;SDS011;66072;50.238;19.228;2024-02-28T12:19:09;66.40;;;39.80;;
77117;SDS011;66072;50.238;19.228;2024-02-28T12:21:39;58.70;;;36.10;;
77117;SDS011;66072;50.238;19.228;2024-02-28T12:24:08;71.40;;;42.10;;
77117;SDS011;66072;50.238;19.228;2024-02-28T12:26:39;69.80;;;41.20;;
77117;SDS011;66072;50.238;19.228;2024-02-28T12:29:07;78.80;;;45.50;;
77117;SDS011;66072;50.238;19.228;2024-02-28T12:31:35;72.30;;;42.80;;
77117;SDS011;66072;50.238;19.228;2024-02-28T12:34:03;79.10;;;45.10;;
77117;SDS011;66072;50.238;19.228;2024-02-28T12:36:31;77.30;;;42.00;;
77117;SDS011;66072;50.238;19.228;2024-02-28T12:38:59;81.70;;;44.60;;
77117;SDS011;66072;50.238;19.228;2024-02-28T12:41:27;85.00;;;46.20;;
77117;SDS011;66072;50.238;19.228;2024-02-28T12:43:55;78.40;;;43.10;;
77117;SDS011;66072;50.238;19.228;2024-02-28T12:46:23;72.80;;;43.40;;
77117;SDS011;66072;50.238;19.228;2024-02-28T12:48:50;93.30;;;47.20;;
77117;SDS011;66072;50.238;19.228;2024-02-28T12:51:38;93.60;;;48.40;;
77117;SDS011;66072;50.238;19.228;2024-02-28T12:54:09;97.70;;;51.40;;
77117;SDS011;66072;50.238;19.228;2024-02-28T12:56:38;96.10;;;47.20;;
77117;SDS011;66072;50.238;19.228;2024-02-28T12:59:06;94.80;;;48.80;;
77117;SDS011;66072;50.238;19.228;2024-02-28T13:01:35;88.60;;;45.10;;
77117;SDS011;66072;50.238;19.228;2024-02-28T13:04:03;93.70;;;45.20;;
77117;SDS011;66072;50.238;19.228;2024-02-28T13:06:31;105.80;;;51.20;;
77117;SDS011;66072;50.238;19.228;2024-02-28T13:09:00;91.50;;;46.20;;
77117;SDS011;66072;50.238;19.228;2024-02-28T13:11:28;108.60;;;51.40;;
77117;SDS011;66072;50.238;19.228;2024-02-28T13:13:56;99.90;;;47.40;;
77117;SDS011;66072;50.238;19.228;2024-02-28T13:16:23;92.40;;;45.30;;
77117;SDS011;66072;50.238;19.228;2024-02-28T13:18:51;92.30;;;44.50;;
77117;SDS011;66072;50.238;19.228;2024-02-28T13:21:19;87.30;;;43.00;;
77117;SDS011;66072;50.238;19.228;2024-02-28T13:23:47;86.50;;;43.20;;
77117;SDS011;66072;50.238;19.228;2024-02-28T13:26:15;99.30;;;47.20;;
77117;SDS011;66072;50.238;19.228;2024-02-28T13:28:43;88.80;;;44.40;;
77117;SDS011;66072;50.238;19.228;2024-02-28T13:31:15;91.00;;;43.70;;
77117;SDS011;66072;50.238;19.228;2024-02-28T13:33:43;94.70;;;45.60;;
77117;SDS011;66072;50.238;19.228;2024-02-28T13:36:11;88.10;;;42.40;;
77117;SDS011;66072;50.238;19.228;2024-02-28T13:38:39;99.40;;;48.10;;
77117;SDS011;66072;50.238;19.228;2024-02-28T13:41:07;100.30;;;49.80;;
77117;SDS011;66072;50.238;19.228;2024-02-28T13:43:35;90.40;;;44.00;;
77117;SDS011;66072;50.238;19.228;2024-02-28T13:46:02;86.30;;;43.90;;
77117;SDS011;66072;50.238;19.228;2024-02-28T13:48:30;88.50;;;44.30;;
77117;SDS011;66072;50.238;19.228;2024-02-28T13:50:59;87.70;;;43.30;;
77117;SDS011;66072;50.238;19.228;2024-02-28T13:53:26;94.50;;;44.20;;
77117;SDS011;66072;50.238;19.228;2024-02-28T13:55:54;96.70;;;47.00;;
77117;SDS011;66072;50.238;19.228;2024-02-28T13:58:22;98.60;;;46.90;;
77117;SDS011;66072;50.238;19.228;2024-02-28T14:00:50;99.20;;;47.90;;
77117;SDS011;66072;50.238;19.228;2024-02-28T14:03:18;91.10;;;44.20;;
77117;SDS011;66072;50.238;19.228;2024-02-28T14:05:46;98.80;;;47.70;;
77117;SDS011;66072;50.238;19.228;2024-02-28T14:08:13;106.30;;;48.40;;
77117;SDS011;66072;50.238;19.228;2024-02-28T14:10:41;94.30;;;43.60;;
77117;SDS011;66072;50.238;19.228;2024-02-28T14:13:09;91.40;;;44.80;;
77117;SDS011;66072;50.238;19.228;2024-02-28T14:15:37;92.70;;;45.40;;
77117;SDS011;66072;50.238;19.228;2024-02-28T14:18:05;92.30;;;43.50;;